Time;durP1;ratioP1;P1;durP2;ratioP2;P2;SDS_P1;SDS_P2;PMS_P1;PMS_P2;Temp;Humidity;BMP_temperature;BMP_pressure;BME280_temperature;BME280_humidity;BME280_pressure;Samples;Min_cycle;Max_cycle;Signal;HPM_P1;HPM_P2
2022/01/21 00:00:56;;;;;;;3.67;2.55;;;-0.70;99.90;;;;;;5075836;28;20197;-72
2022/01/21 00:03:21;;;;;;;2.95;2.20;;;-0.70;99.90;;;;;;5074924;28;20264;-74
2022/01/21 00:05:47;;;;;;;2.33;2.13;;;-0.70;99.90;;;;;;5073566;28;20317;-73
2022/01/21 00:08:13;;;;;;;2.20;2.10;;;-0.80;99.90;;;;;;5058763;28;20220;-73
2022/01/21 00:10:39;;;;;;;2.10;1.90;;;-0.80;99.90;;;;;;5092064;28;20189;-73
2022/01/21 00:13:14;;;;;;;2.10;1.90;;;-0.80;99.90;;;;;;5092369;28;20248;-68
2022/01/21 00:15:39;;;;;;;2.33;2.22;;;-0.80;99.90;;;;;;5073737;28;20158;-68
2022/01/21 00:18:07;;;;;;;8.80;2.20;;;-0.80;99.90;;;;;;5074297;28;20212;-73
2022/01/21 00:31:37;;;;;;;2.08;1.98;;;-0.80;99.90;;;;;;5078090;28;20739;-67
2022/01/21 00:34:02;;;;;;;2.07;1.93;;;-0.90;99.90;;;;;;5092940;28;20170;-73
2022/01/21 00:36:28;;;;;;;7.70;2.90;;;-1.00;99.90;;;;;;5089640;28;20193;-68
2022/01/21 00:38:55;;;;;;;2.90;2.70;;;-0.90;99.90;;;;;;5072430;28;20162;-69
2022/01/21 00:41:25;;;;;;;1.92;1.83;;;-0.90;99.90;;;;;;5075016;28;20420;-73
2022/01/21 00:43:51;;;;;;;2.60;2.50;;;-0.90;99.90;;;;;;5093389;28;20193;-73
2022/01/21 00:46:19;;;;;;;3.83;2.73;;;-0.80;99.90;;;;;;5092282;28;20173;-73
2022/01/21 00:48:45;;;;;;;2.40;2.13;;;-0.80;99.90;;;;;;5071670;28;20527;-74
2022/01/21 00:51:10;;;;;;;4.40;2.70;;;-0.80;99.90;;;;;;5055238;28;20214;-68
2022/01/21 00:53:36;;;;;;;1.90;1.80;;;-0.80;99.90;;;;;;5074213;28;20178;-73
2022/01/21 00:56:02;;;;;;;6.00;2.20;;;-0.80;99.90;;;;;;5093419;28;20685;-67
2022/01/21 00:58:27;;;;;;;2.50;2.30;;;-0.90;99.90;;;;;;5075218;28;20174;-71
2022/01/21 01:00:53;;;;;;;4.13;2.70;;;-0.90;99.90;;;;;;5054490;28;20688;-72
2022/01/21 01:03:19;;;;;;;10.43;2.47;;;-0.80;99.90;;;;;;5088140;28;20223;-73
2022/01/21 01:05:47;;;;;;;2.00;1.90;;;-0.80;99.90;;;;;;5093217;28;20169;-68
2022/01/21 01:08:12;;;;;;;3.40;3.20;;;-0.80;99.90;;;;;;5077804;28;20269;-69
2022/01/21 01:10:58;;;;;;;3.40;2.50;;;-0.80;99.90;;;;;;5054085;28;20277;-70
2022/01/21 01:21:37;;;;;;;2.53;2.33;;;-1.00;99.90;;;;;;5075167;28;20200;-69
2022/01/21 01:29:22;;;;;;;5.25;2.35;;;-0.90;99.90;;;;;;5072053;28;20308;-72
2022/01/21 01:31:48;;;;;;;2.97;1.42;;;-1.00;99.90;;;;;;5075418;28;20550;-72
2022/01/21 01:34:15;;;;;;;10.43;3.10;;;-0.90;99.90;;;;;;5093047;28;20165;-69
2022/01/21 01:36:43;;;;;;;5.50;2.08;;;-1.00;99.90;;;;;;5087366;28;20241;-68
2022/01/21 01:41:52;;;;;;;2.70;2.50;;;-1.00;99.90;;;;;;5076455;28;20193;-69
2022/01/21 01:49:46;;;;;;;2.00;1.90;;;-0.80;99.90;;;;;;5075490;28;20169;-68
2022/01/21 01:52:15;;;;;;;2.10;2.00;;;-0.80;99.90;;;;;;5077756;28;20167;-71
2022/01/21 01:54:44;;;;;;;6.63;3.38;;;-0.80;99.90;;;;;;5076595;28;20231;-72
2022/01/21 01:57:10;;;;;;;2.30;2.20;;;-0.70;99.90;;;;;;5065750;28;20179;-68
2022/01/21 01:59:37;;;;;;;2.13;2.03;;;-0.80;99.90;;;;;;5076980;28;20196;-73
2022/01/21 02:02:09;;;;;;;2.53;2.33;;;-0.80;99.90;;;;;;5088645;28;20490;-68
2022/01/21 02:04:36;;;;;;;13.77;2.30;;;-0.70;99.90;;;;;;5076122;28;20599;-68
2022/01/21 02:07:02;;;;;;;2.17;2.08;;;-0.70;99.90;;;;;;5081445;28;20162;-68
2022/01/21 02:09:28;;;;;;;2.35;2.25;;;-0.80;99.90;;;;;;5077704;28;20185;-73
2022/01/21 02:11:54;;;;;;;1.97;1.87;;;-0.90;99.90;;;;;;5073797;28;20209;-68
2022/01/21 02:14:23;;;;;;;3.70;1.73;;;-0.90;99.90;;;;;;5076073;28;20171;-74
2022/01/21 02:22:11;;;;;;;1.85;1.75;;;-0.90;99.90;;;;;;5095632;28;20265;-73
2022/01/21 02:24:53;;;;;;;2.00;1.90;;;-1.00;99.90;;;;;;5095506;28;20197;-67
2022/01/21 02:27:20;;;;;;;2.38;2.17;;;-1.00;99.90;;;;;;5077929;28;20180;-73
2022/01/21 02:29:51;;;;;;;2.28;2.17;;;-1.00;99.90;;;;;;5072238;28;20177;-72
2022/01/21 02:32:18;;;;;;;1.80;1.70;;;-1.00;99.90;;;;;;5075657;28;20574;-72
2022/01/21 02:34:45;;;;;;;3.17;2.40;;;-0.90;99.90;;;;;;5079045;28;20254;-68
2022/01/21 02:37:13;;;;;;;2.55;2.45;;;-0.90;99.90;;;;;;5077772;28;20178;-73
2022/01/21 02:39:38;;;;;;;1.88;1.77;;;-1.00;99.90;;;;;;5074408;28;20173;-74
2022/01/21 02:42:05;;;;;;;2.13;2.03;;;-1.00;99.90;;;;;;5074820;28;20248;-68
2022/01/21 02:44:30;;;;;;;2.13;2.03;;;-1.10;99.90;;;;;;5075158;28;20224;-72
2022/01/21 02:46:59;;;;;;;2.30;2.20;;;-1.10;99.90;;;;;;5095860;28;20204;-68
2022/01/21 02:49:26;;;;;;;2.65;2.20;;;-1.00;99.90;;;;;;5094765;28;20232;-73
2022/01/21 02:52:01;;;;;;;2.13;1.95;;;-1.00;99.90;;;;;;5058433;28;20198;-72
2022/01/21 02:54:30;;;;;;;3.22;2.88;;;-1.00;99.90;;;;;;5076417;28;20522;-74
2022/01/21 02:56:56;;;;;;;1.90;1.80;;;-1.00;99.90;;;;;;5094478;28;20165;-71
2022/01/21 02:59:21;;;;;;;2.75;2.63;;;-1.00;99.90;;;;;;5076037;28;20230;-74
2022/01/21 03:01:49;;;;;;;5.83;2.30;;;-0.90;99.90;;;;;;5057036;28;20670;-68
2022/01/21 03:04:22;;;;;;;13.05;3.03;;;-0.90;99.90;;;;;;5091005;28;20185;-70
2022/01/21 03:06:47;;;;;;;3.72;2.60;;;-0.80;99.90;;;;;;5095556;28;20173;-73
2022/01/21 03:09:13;;;;;;;2.70;2.50;;;-0.80;99.90;;;;;;5078638;28;20289;-73
2022/01/21 03:11:40;;;;;;;2.78;2.22;;;-0.80;99.90;;;;;;5074831;28;20218;-68
2022/01/21 03:14:05;;;;;;;2.23;2.13;;;-0.80;99.90;;;;;;5070640;28;20696;-73
2022/01/21 03:16:31;;;;;;;2.23;2.13;;;-0.80;99.90;;;;;;5094767;28;20192;-73
2022/01/21 03:18:57;;;;;;;4.17;3.30;;;-0.90;99.90;;;;;;5091952;28;20261;-73
2022/01/21 03:21:23;;;;;;;4.80;1.80;;;-0.90;99.90;;;;;;5095030;28;20419;-68
2022/01/21 03:23:51;;;;;;;1.80;1.70;;;-0.90;99.90;;;;;;5084516;28;20452;-73
2022/01/21 03:26:18;;;;;;;2.85;2.65;;;-0.90;99.90;;;;;;5056946;28;20170;-73
2022/01/21 03:28:46;;;;;;;2.00;1.90;;;-0.90;99.90;;;;;;5082627;28;20224;-68
2022/01/21 03:31:12;;;;;;;2.25;2.05;;;-0.80;99.90;;;;;;5076875;28;20566;-68
2022/01/21 03:33:38;;;;;;;1.60;1.50;;;-0.70;99.90;;;;;;5086766;28;20181;-73
2022/01/21 03:36:04;;;;;;;1.93;1.70;;;-0.80;99.90;;;;;;5056108;28;20892;-73
2022/01/21 03:38:30;;;;;;;2.67;2.58;;;-0.70;99.90;;;;;;5079438;28;20178;-75
2022/01/21 03:40:55;;;;;;;2.90;2.67;;;-0.70;99.90;;;;;;5093302;28;20246;-68
2022/01/21 03:43:22;;;;;;;2.80;2.30;;;-0.70;99.90;;;;;;5090273;28;20178;-73
2022/01/21 03:45:48;;;;;;;2.65;2.45;;;-0.70;99.90;;;;;;5074335;28;20178;-73
2022/01/21 03:48:14;;;;;;;3.53;2.45;;;-0.60;99.90;;;;;;5076635;28;20183;-69
2022/01/21 03:50:40;;;;;;;2.08;1.98;;;-0.60;99.90;;;;;;5093484;28;20189;-73
2022/01/21 03:53:06;;;;;;;3.10;2.13;;;-0.60;99.90;;;;;;5075432;28;20586;-68
2022/01/21 03:55:32;;;;;;;2.50;2.10;;;-0.60;99.90;;;;;;5073961;28;20431;-72
2022/01/21 03:57:58;;;;;;;6.57;2.38;;;-0.60;99.90;;;;;;5090054;28;20537;-73
2022/01/21 04:00:27;;;;;;;7.53;2.05;;;-0.60;99.90;;;;;;5093242;28;20530;-74
2022/01/21 04:02:53;;;;;;;3.70;2.38;;;-0.60;1.00;;;;;;5060759;28;20650;-72
2022/01/21 04:05:19;;;;;;;3.23;2.07;;;-0.50;1.00;;;;;;5073894;28;20198;-73
2022/01/21 04:07:45;;;;;;;2.90;2.13;;;-0.50;1.00;;;;;;5074669;28;20825;-69
2022/01/21 04:10:11;;;;;;;2.60;2.03;;;-0.50;1.00;;;;;;5071889;28;20912;-68
2022/01/21 04:12:37;;;;;;;2.27;2.07;;;-0.50;1.00;;;;;;5088633;28;20173;-69
2022/01/21 04:15:03;;;;;;;7.53;2.87;;;-0.40;1.00;;;;;;5075808;28;20408;-73
2022/01/21 04:17:29;;;;;;;10.90;2.40;;;-0.50;1.00;;;;;;5080169;28;20174;-73
2022/01/21 04:19:55;;;;;;;4.50;2.67;;;-0.50;1.00;;;;;;5072662;28;20658;-68
2022/01/21 04:22:21;;;;;;;3.03;1.90;;;-0.50;1.00;;;;;;5074675;28;20686;-68
2022/01/21 04:24:49;;;;;;;2.22;2.05;;;-0.50;1.00;;;;;;5073536;28;20194;-72
2022/01/21 04:27:15;;;;;;;1.90;1.80;;;-0.40;1.00;;;;;;5083917;28;20260;-68
2022/01/21 04:29:41;;;;;;;1.52;1.40;;;-0.40;1.00;;;;;;5092275;28;20227;-73
2022/01/21 04:32:07;;;;;;;6.33;2.27;;;-0.40;1.00;;;;;;5066092;28;20674;-74
2022/01/21 04:34:33;;;;;;;2.03;1.92;;;-0.40;1.00;;;;;;5073374;28;20522;-73
2022/01/21 04:37:00;;;;;;;2.63;2.43;;;-0.40;1.00;;;;;;5083778;28;20177;-68
2022/01/21 04:39:31;;;;;;;7.30;2.72;;;-0.40;1.00;;;;;;5074567;28;20502;-73
2022/01/21 04:47:26;;;;;;;7.68;3.63;;;-0.40;1.00;;;;;;5086621;28;20664;-73
2022/01/21 04:49:52;;;;;;;7.32;2.00;;;-0.40;1.00;;;;;;5091719;28;20257;-73
2022/01/21 04:52:17;;;;;;;12.23;2.53;;;-0.30;1.00;;;;;;5081153;28;20214;-73
2022/01/21 04:54:43;;;;;;;1.73;1.63;;;-0.30;1.00;;;;;;5073313;28;20217;-73
2022/01/21 04:57:09;;;;;;;2.13;1.93;;;-0.30;1.00;;;;;;5082934;28;20256;-73
2022/01/21 04:59:37;;;;;;;1.60;1.50;;;-0.30;1.00;;;;;;5074541;28;20542;-72
2022/01/21 05:02:03;;;;;;;3.42;2.15;;;-0.30;1.00;;;;;;5084157;28;20472;-73
2022/01/21 05:04:28;;;;;;;6.50;1.83;;;-0.30;1.00;;;;;;5073059;28;20243;-73
2022/01/21 05:06:55;;;;;;;6.90;1.83;;;-0.30;1.00;;;;;;5078883;28;20439;-69
2022/01/21 05:09:30;;;;;;;2.55;2.30;;;-0.30;1.00;;;;;;5092205;28;20576;-68
2022/01/21 05:11:57;;;;;;;11.73;2.47;;;-0.30;1.00;;;;;;5086077;28;20247;-70
2022/01/21 05:14:27;;;;;;;4.25;2.42;;;-0.30;1.00;;;;;;5054811;28;20265;-68
2022/01/21 05:17:01;;;;;;;2.63;2.53;;;-0.30;1.00;;;;;;5078580;28;20165;-73
2022/01/21 05:19:27;;;;;;;2.63;2.22;;;-0.30;1.00;;;;;;5073580;28;20649;-69
2022/01/21 05:21:53;;;;;;;2.40;1.87;;;-0.30;1.00;;;;;;5087368;28;20210;-68
2022/01/21 05:24:21;;;;;;;7.30;2.03;;;-0.30;1.00;;;;;;5054681;28;20221;-73
2022/01/21 05:26:56;;;;;;;7.32;2.53;;;-0.40;1.00;;;;;;5075796;28;20247;-72
2022/01/21 05:29:28;;;;;;;1.70;1.60;;;-0.40;1.00;;;;;;5092130;28;20171;-70
2022/01/21 05:31:55;;;;;;;2.80;2.58;;;-0.40;1.00;;;;;;5070037;28;20220;-68
2022/01/21 05:34:21;;;;;;;2.25;2.05;;;-0.40;1.00;;;;;;5072781;28;20166;-73
2022/01/21 05:36:47;;;;;;;2.72;2.50;;;-0.40;1.00;;;;;;5075360;28;20312;-74
2022/01/21 05:39:15;;;;;;;2.60;2.40;;;-0.40;1.00;;;;;;5091970;28;20265;-73
2022/01/21 05:41:46;;;;;;;2.00;1.90;;;-0.40;1.00;;;;;;5087144;28;20515;-68
2022/01/21 05:44:20;;;;;;;10.07;2.85;;;-0.40;1.00;;;;;;5072528;28;20210;-73
2022/01/21 05:46:55;;;;;;;5.70;1.55;;;-0.40;1.00;;;;;;5076943;28;20259;-68
2022/01/21 05:49:25;;;;;;;3.13;1.90;;;-0.50;1.00;;;;;;5091906;28;20178;-68
2022/01/21 05:51:53;;;;;;;2.30;2.10;;;-0.50;1.00;;;;;;5077005;28;20186;-68
2022/01/21 05:54:24;;;;;;;5.10;2.30;;;-0.50;1.00;;;;;;5072540;28;20175;-69
2022/01/21 05:56:50;;;;;;;9.68;3.47;;;-0.50;1.00;;;;;;5087019;28;20173;-68
2022/01/21 05:59:16;;;;;;;6.73;2.47;;;-0.50;1.00;;;;;;5091929;28;20729;-68
2022/01/21 06:01:42;;;;;;;2.50;1.57;;;-0.60;1.00;;;;;;5077984;28;20206;-69
2022/01/21 06:04:07;;;;;;;2.00;1.90;;;-0.60;1.00;;;;;;5077376;28;20215;-69
2022/01/21 06:06:33;;;;;;;2.30;2.00;;;-0.60;1.00;;;;;;5091845;28;20922;-73
2022/01/21 06:08:59;;;;;;;5.63;2.70;;;-0.60;1.00;;;;;;5070448;28;20183;-68
2022/01/21 06:11:24;;;;;;;3.30;1.97;;;-0.50;1.00;;;;;;5054422;28;20543;-68
2022/01/21 06:13:51;;;;;;;2.17;1.87;;;-0.60;1.00;;;;;;5055417;28;20177;-69
2022/01/21 06:16:18;;;;;;;2.10;1.90;;;-0.60;1.00;;;;;;5088905;28;20208;-68
2022/01/21 06:18:44;;;;;;;2.40;2.30;;;-0.60;1.00;;;;;;5091712;28;20257;-74
2022/01/21 06:21:10;;;;;;;1.65;1.55;;;-0.60;1.00;;;;;;5092401;28;20282;-68
2022/01/21 06:23:35;;;;;;;3.67;2.30;;;-0.60;1.00;;;;;;5091761;28;20264;-69
2022/01/21 06:26:01;;;;;;;2.30;2.10;;;-0.70;1.00;;;;;;5091576;28;20219;-68
2022/01/21 06:28:27;;;;;;;3.72;2.85;;;-0.60;1.00;;;;;;5074389;28;20198;-68
2022/01/21 06:30:53;;;;;;;23.57;9.13;;;-0.60;1.00;;;;;;5071633;28;20233;-69
2022/01/21 06:33:20;;;;;;;5.43;4.70;;;-0.70;1.00;;;;;;5090996;28;20634;-73
2022/01/21 06:35:47;;;;;;;5.15;4.65;;;-0.70;1.00;;;;;;5095752;28;20161;-69
2022/01/21 06:38:13;;;;;;;4.47;4.00;;;-0.70;1.00;;;;;;5081064;28;20638;-72
2022/01/21 06:40:39;;;;;;;2.80;2.60;;;-0.70;1.00;;;;;;5074763;28;20187;-72
2022/01/21 06:43:04;;;;;;;2.90;2.60;;;-0.80;1.00;;;;;;5088142;28;20177;-73
2022/01/21 06:45:31;;;;;;;4.30;1.90;;;-0.80;1.00;;;;;;5095044;28;20478;-72
2022/01/21 06:47:59;;;;;;;5.57;2.83;;;-0.80;1.00;;;;;;5084234;28;20703;-73
2022/01/21 06:50:26;;;;;;;3.47;1.05;;;-0.80;1.00;;;;;;5073575;28;20935;-67
2022/01/21 06:52:52;;;;;;;2.50;2.30;;;-0.70;1.00;;;;;;5067069;28;20196;-71
2022/01/21 06:55:18;;;;;;;2.97;1.90;;;-0.70;1.00;;;;;;5080448;28;20639;-67
2022/01/21 06:57:43;;;;;;;1.93;1.83;;;-0.80;1.00;;;;;;5068934;28;20219;-67
2022/01/21 07:00:13;;;;;;;2.53;2.33;;;-0.80;1.00;;;;;;5094311;28;20444;-72
2022/01/21 07:02:39;;;;;;;2.38;2.17;;;-0.90;1.00;;;;;;5083960;28;20180;-72
2022/01/21 07:05:06;;;;;;;1.90;1.80;;;-0.90;1.00;;;;;;5075033;28;20202;-72
2022/01/21 07:07:33;;;;;;;2.22;1.92;;;-0.90;1.00;;;;;;5084208;28;20178;-68
2022/01/21 07:10:00;;;;;;;2.47;2.33;;;-0.90;1.00;;;;;;5075018;28;20176;-68
2022/01/21 07:12:26;;;;;;;3.90;2.30;;;-0.90;1.00;;;;;;5083272;28;20170;-69
2022/01/21 07:14:52;;;;;;;2.30;2.10;;;-0.90;1.00;;;;;;5057320;28;20512;-74
2022/01/21 07:17:17;;;;;;;2.33;2.20;;;-1.00;1.00;;;;;;5084198;28;20427;-73
2022/01/21 07:19:43;;;;;;;8.93;2.80;;;-1.00;1.00;;;;;;5076333;28;20166;-73
2022/01/21 07:22:09;;;;;;;2.00;1.90;;;-1.00;1.00;;;;;;5086659;28;20186;-73
2022/01/21 07:24:34;;;;;;;4.10;2.43;;;-1.00;1.00;;;;;;5074628;28;20666;-73
2022/01/21 07:27:00;;;;;;;10.43;2.50;;;-1.00;1.00;;;;;;5080865;28;20169;-67
2022/01/21 07:29:26;;;;;;;5.30;2.17;;;-1.00;1.00;;;;;;5093605;28;20161;-73
2022/01/21 07:31:54;;;;;;;2.30;2.13;;;-1.00;1.00;;;;;;5090043;28;21018;-72
2022/01/21 07:34:21;;;;;;;4.13;1.85;;;-1.10;1.00;;;;;;5074708;28;20167;-68
2022/01/21 07:36:47;;;;;;;2.30;2.05;;;-1.10;1.00;;;;;;5077244;28;20201;-73
2022/01/21 07:39:13;;;;;;;1.70;1.60;;;-1.00;1.00;;;;;;5093451;28;20247;-68
2022/01/21 07:41:38;;;;;;;2.20;2.00;;;-1.00;1.00;;;;;;5092585;28;20347;-67
2022/01/21 07:44:04;;;;;;;2.03;1.93;;;-1.00;1.00;;;;;;5073852;28;20201;-73
2022/01/21 07:46:30;;;;;;;2.10;1.60;;;-1.00;1.00;;;;;;5056504;28;20190;-69
2022/01/21 07:48:57;;;;;;;1.70;1.60;;;-1.00;1.00;;;;;;5093407;28;20165;-74
2022/01/21 07:51:23;;;;;;;5.75;2.03;;;-1.00;1.00;;;;;;5087499;28;20431;-73
2022/01/21 07:53:49;;;;;;;3.10;2.57;;;-1.00;1.00;;;;;;5075880;28;20173;-68
2022/01/21 07:56:14;;;;;;;2.90;2.70;;;-1.00;1.00;;;;;;5094570;28;20457;-68
2022/01/21 07:58:40;;;;;;;2.10;2.00;;;-1.00;1.00;;;;;;5075259;28;20223;-68
2022/01/21 08:01:06;;;;;;;2.50;2.30;;;-1.00;1.00;;;;;;5094193;28;20192;-73
2022/01/21 08:03:32;;;;;;;2.23;2.03;;;-1.00;1.00;;;;;;5094337;28;20195;-68
2022/01/21 08:05:57;;;;;;;2.23;2.10;;;-0.90;1.00;;;;;;5094262;28;20647;-73
2022/01/21 08:08:24;;;;;;;1.80;1.70;;;-0.80;1.00;;;;;;5093986;28;20185;-69
2022/01/21 08:10:50;;;;;;;6.68;2.70;;;-0.80;1.00;;;;;;5093252;28;20182;-73
2022/01/21 08:13:16;;;;;;;1.90;1.80;;;-0.90;1.00;;;;;;5075952;28;20176;-70
2022/01/21 08:15:41;;;;;;;1.93;1.83;;;-0.80;1.00;;;;;;5093950;28;20507;-73
2022/01/21 08:18:09;;;;;;;4.83;2.63;;;-0.80;1.00;;;;;;5076075;28;20174;-73
2022/01/21 08:20:35;;;;;;;10.27;2.88;;;-0.70;1.00;;;;;;5092970;28;20190;-68
2022/01/21 08:23:00;;;;;;;3.00;2.67;;;-0.70;1.00;;;;;;5075738;28;20182;-68
2022/01/21 08:25:26;;;;;;;5.73;2.27;;;-0.60;1.00;;;;;;5093803;28;20458;-68
2022/01/21 08:27:52;;;;;;;3.30;2.47;;;-0.60;1.00;;;;;;5093731;28;20649;-68
2022/01/21 08:30:18;;;;;;;5.57;2.00;;;-0.50;1.00;;;;;;5092600;28;20781;-68
2022/01/21 08:32:43;;;;;;;1.90;1.80;;;-0.50;1.00;;;;;;5093704;28;20177;-73
2022/01/21 08:35:10;;;;;;;4.30;2.13;;;-0.40;1.00;;;;;;5093598;28;20166;-68
2022/01/21 08:37:36;;;;;;;2.75;2.17;;;-0.40;1.00;;;;;;5093761;28;20162;-68
2022/01/21 08:40:03;;;;;;;2.85;2.22;;;-0.30;1.00;;;;;;5092557;28;20193;-67
2022/01/21 08:42:29;;;;;;;3.22;2.72;;;-0.30;1.00;;;;;;5093452;28;20630;-68
2022/01/21 08:44:54;;;;;;;3.77;2.23;;;-0.40;1.00;;;;;;5093356;28;20275;-68
2022/01/21 08:47:21;;;;;;;2.00;1.90;;;-0.30;1.00;;;;;;5075357;28;20173;-73
2022/01/21 08:49:49;;;;;;;3.42;2.50;;;-0.30;1.00;;;;;;5092306;28;20763;-74
2022/01/21 08:52:24;;;;;;;4.05;1.95;;;-0.20;1.00;;;;;;5093455;28;20173;-68
2022/01/21 08:54:50;;;;;;;1.95;1.85;;;-0.10;1.00;;;;;;5074389;28;20173;-68
2022/01/21 08:57:17;;;;;;;2.05;1.95;;;-0.10;1.00;;;;;;5075159;28;20546;-73
2022/01/21 08:59:43;;;;;;;2.30;2.20;;;0.00;1.00;;;;;;5092487;28;20164;-73
2022/01/21 09:02:09;;;;;;;2.83;2.63;;;0.20;1.00;;;;;;5093212;28;20723;-68
2022/01/21 09:04:35;;;;;;;2.33;2.13;;;0.20;1.00;;;;;;5075038;28;20205;-68
2022/01/21 09:07:01;;;;;;;3.33;2.83;;;0.20;1.00;;;;;;5093190;28;20664;-70
2022/01/21 09:09:28;;;;;;;2.47;2.27;;;0.40;1.00;;;;;;5092042;28;20511;-75
2022/01/21 09:11:59;;;;;;;3.60;3.30;;;0.40;1.00;;;;;;5093110;28;20434;-68
2022/01/21 09:14:29;;;;;;;2.83;2.50;;;0.50;1.00;;;;;;5093170;28;20614;-69
2022/01/21 09:16:56;;;;;;;6.10;2.55;;;0.60;1.00;;;;;;5093212;28;20215;-74
2022/01/21 09:19:23;;;;;;;4.38;2.72;;;0.50;1.00;;;;;;5092147;28;20177;-68
2022/01/21 09:21:51;;;;;;;4.65;2.13;;;0.50;1.00;;;;;;5093032;28;20196;-73
2022/01/21 09:24:19;;;;;;;2.47;2.25;;;0.70;1.00;;;;;;5093111;28;20196;-73
2022/01/21 09:26:44;;;;;;;1.80;1.70;;;0.80;1.00;;;;;;5092725;28;20154;-68
2022/01/21 09:29:11;;;;;;;6.40;2.17;;;0.90;1.00;;;;;;5091929;28;20180;-71
2022/01/21 09:31:37;;;;;;;2.45;2.17;;;0.90;1.00;;;;;;5092913;28;20443;-73
2022/01/21 09:34:05;;;;;;;9.40;2.10;;;0.90;1.00;;;;;;5074935;28;20169;-73
2022/01/21 09:36:32;;;;;;;2.42;2.20;;;1.10;1.00;;;;;;5092933;28;20216;-68
2022/01/21 09:38:58;;;;;;;3.55;2.65;;;1.20;1.00;;;;;;5092101;28;20235;-73
2022/01/21 09:41:24;;;;;;;3.30;1.73;;;1.30;1.00;;;;;;5074814;28;20194;-73
2022/01/21 09:43:53;;;;;;;1.88;1.65;;;1.40;1.00;;;;;;5092762;28;20443;-68
2022/01/21 09:46:32;;;;;;;2.33;2.13;;;1.40;1.00;;;;;;5092773;28;20162;-69
2022/01/21 09:51:44;;;;;;;6.37;2.47;;;1.60;1.00;;;;;;5092642;28;20259;-70
2022/01/21 09:54:11;;;;;;;2.60;2.17;;;1.70;1.00;;;;;;5074998;28;20891;-69
2022/01/21 09:56:38;;;;;;;2.20;2.10;;;1.80;1.00;;;;;;5092826;28;20408;-73
2022/01/21 09:59:04;;;;;;;2.40;2.20;;;1.90;1.00;;;;;;5091819;28;20430;-72
2022/01/21 10:01:30;;;;;;;3.40;1.90;;;2.00;1.00;;;;;;5092619;28;20458;-69
2022/01/21 10:03:56;;;;;;;8.60;2.63;;;2.10;1.00;;;;;;5092329;28;20958;-73
2022/01/21 10:06:27;;;;;;;3.97;2.10;;;2.20;1.00;;;;;;5094585;28;20398;-70
2022/01/21 10:08:56;;;;;;;7.70;2.30;;;2.20;1.00;;;;;;5077462;28;20426;-70
2022/01/21 10:11:22;;;;;;;4.60;1.90;;;2.40;1.00;;;;;;5096327;28;20441;-70
2022/01/21 10:13:50;;;;;;;2.17;1.97;;;2.50;1.00;;;;;;5096259;28;20520;-70
2022/01/21 10:16:16;;;;;;;10.20;2.07;;;2.70;1.00;;;;;;5096378;28;20879;-70
2022/01/21 10:19:02;;;;;;;1.70;1.60;;;2.80;1.00;;;;;;5095162;28;20392;-72
2022/01/21 10:21:31;;;;;;;3.47;2.10;;;2.80;1.00;;;;;;5077579;28;20434;-69
2022/01/21 10:24:14;;;;;;;6.77;1.70;;;2.80;1.00;;;;;;5095658;28;20449;-73
2022/01/21 10:26:59;;;;;;;2.00;1.90;;;2.80;1.00;;;;;;5095709;28;20404;-70
2022/01/21 10:29:36;;;;;;;4.07;2.53;;;2.90;1.00;;;;;;5095062;28;20869;-70
2022/01/21 10:32:03;;;;;;;3.43;1.73;;;2.90;1.00;;;;;;5095597;28;20845;-73
2022/01/21 10:34:40;;;;;;;10.33;2.27;;;3.00;1.00;;;;;;5095665;28;20395;-69
2022/01/21 10:37:26;;;;;;;3.33;1.83;;;3.00;1.00;;;;;;5077309;28;20426;-73
2022/01/21 10:40:07;;;;;;;3.47;2.20;;;3.00;1.00;;;;;;5094555;28;20391;-70
2022/01/21 10:42:32;;;;;;;2.00;1.83;;;3.10;1.00;;;;;;5095512;28;20396;-70
2022/01/21 10:44:59;;;;;;;3.93;2.07;;;3.10;1.00;;;;;;5095648;28;20505;-71
2022/01/21 10:47:36;;;;;;;4.33;2.17;;;3.20;1.00;;;;;;5095470;28;20622;-73
2022/01/21 10:50:14;;;;;;;2.17;2.07;;;3.30;1.00;;;;;;5094155;28;20422;-71
2022/01/21 10:52:45;;;;;;;3.80;2.60;;;3.40;1.00;;;;;;5095650;28;20450;-71
2022/01/21 10:55:32;;;;;;;8.63;2.00;;;3.50;1.00;;;;;;5095335;28;20432;-74
2022/01/21 10:58:09;;;;;;;2.23;1.67;;;3.40;1.00;;;;;;5095445;28;20396;-71
2022/01/21 11:00:58;;;;;;;6.43;2.50;;;3.50;1.00;;;;;;5094530;28;20480;-74
2022/01/21 11:03:24;;;;;;;3.50;2.13;;;3.60;1.00;;;;;;5095467;28;20392;-71
2022/01/21 11:05:55;;;;;;;1.60;1.50;;;3.60;1.00;;;;;;5095282;28;20450;-71
2022/01/21 11:08:26;;;;;;;2.37;2.17;;;3.70;1.00;;;;;;5095356;28;20927;-73
2022/01/21 11:10:52;;;;;;;2.40;1.90;;;3.80;1.00;;;;;;5094360;28;20412;-71
2022/01/21 11:13:20;;;;;;;2.30;2.10;;;3.80;1.00;;;;;;5094827;28;20404;-71
2022/01/21 11:15:54;;;;;;;4.20;2.03;;;3.90;1.00;;;;;;5095217;28;20901;-72
2022/01/21 11:18:21;;;;;;;6.77;2.90;;;4.00;1.00;;;;;;5094354;28;20405;-73
2022/01/21 11:20:50;;;;;;;2.83;2.47;;;4.00;1.00;;;;;;5094338;28;20499;-74
2022/01/21 11:23:17;;;;;;;6.17;2.77;;;4.00;1.00;;;;;;5095111;28;20400;-74
2022/01/21 11:25:45;;;;;;;9.03;3.40;;;4.10;1.00;;;;;;5095069;28;20868;-74
2022/01/21 11:28:13;;;;;;;5.73;2.73;;;4.20;1.00;;;;;;5094600;28;20428;-74
2022/01/21 11:30:39;;;;;;;2.57;2.20;;;4.30;1.00;;;;;;5093887;28;20409;-74
2022/01/21 11:33:05;;;;;;;2.50;2.00;;;4.40;1.00;;;;;;5094896;28;20446;-74
2022/01/21 11:35:31;;;;;;;13.47;3.70;;;4.50;1.00;;;;;;5094976;28;20400;-72
2022/01/21 11:38:05;;;;;;;5.13;2.40;;;4.50;1.00;;;;;;5076777;28;20407;-74
2022/01/21 11:40:31;;;;;;;4.83;2.30;;;4.40;1.00;;;;;;5075436;28;20807;-75
2022/01/21 11:42:57;;;;;;;2.40;2.20;;;4.30;1.00;;;;;;5076948;28;20416;-72
2022/01/21 11:48:49;;;;;;;3.70;2.53;;;4.30;1.00;;;;;;5094280;28;20403;-74
2022/01/21 11:50:48;;;;;;;2.70;1.93;;;4.30;1.00;;;;;;5093425;28;20432;-72
2022/01/21 11:53:15;;;;;;;2.80;2.40;;;4.30;1.00;;;;;;5094470;28;20407;-74
2022/01/21 11:55:47;;;;;;;2.60;2.10;;;4.30;1.00;;;;;;5094329;28;20400;-74
2022/01/21 11:58:17;;;;;;;2.00;1.80;;;4.30;1.00;;;;;;5094591;28;20406;-74
2022/01/21 12:00:43;;;;;;;8.40;2.30;;;4.40;1.00;;;;;;5093279;28;20421;-71
2022/01/21 12:03:09;;;;;;;17.20;2.30;;;4.40;1.00;;;;;;5076195;28;20871;-73
2022/01/21 12:05:35;;;;;;;2.17;1.97;;;4.40;1.00;;;;;;5092964;28;20549;-73
2022/01/21 12:08:06;;;;;;;1.77;1.67;;;4.50;1.00;;;;;;5093287;28;20186;-72
2022/01/21 12:10:33;;;;;;;4.37;2.50;;;4.50;1.00;;;;;;5093078;28;20188;-72
2022/01/21 12:13:04;;;;;;;6.20;2.03;;;4.60;1.00;;;;;;5094118;28;20397;-73
2022/01/21 12:20:54;;;;;;;2.03;1.93;;;4.60;1.00;;;;;;5072730;28;20281;-72
2022/01/21 12:23:25;;;;;;;2.20;2.00;;;4.70;1.00;;;;;;5081772;28;20980;-73
2022/01/21 12:26:20;;;;;;;2.30;1.83;;;4.80;1.00;;;;;;5093769;28;20847;-72
2022/01/21 12:28:57;;;;;;;11.90;2.60;;;4.90;1.00;;;;;;5092741;28;20404;-74
2022/01/21 12:31:24;;;;;;;4.40;2.50;;;4.90;1.00;;;;;;5093453;28;20474;-73
2022/01/21 12:36:20;;;;;;;3.20;2.30;;;4.90;1.00;;;;;;5093474;28;20506;-73
2022/01/21 12:41:17;;;;;;;5.00;2.63;;;5.10;1.00;;;;;;5092468;28;20442;-72
2022/01/21 12:43:56;;;;;;;19.17;2.70;;;5.10;1.00;;;;;;5092864;28;20530;-73
2022/01/21 12:46:42;;;;;;;5.13;2.03;;;5.20;1.00;;;;;;5093278;28;20436;-73
2022/01/21 12:49:45;;;;;;;4.10;2.90;;;5.20;1.00;;;;;;5091815;28;20468;-73
2022/01/21 12:52:14;;;;;;;7.97;2.20;;;5.30;1.00;;;;;;5091258;28;20462;-74
2022/01/21 12:57:28;;;;;;;2.67;2.47;;;5.40;1.00;;;;;;5093087;28;20473;-72
2022/01/21 12:59:56;;;;;;;5.77;2.80;;;5.40;1.00;;;;;;5073690;28;20423;-72
2022/01/21 13:02:27;;;;;;;3.27;2.60;;;5.50;1.00;;;;;;5093185;28;20417;-72
2022/01/21 13:05:19;;;;;;;3.13;2.90;;;5.60;1.00;;;;;;5092996;28;20444;-72
2022/01/21 13:07:54;;;;;;;11.67;3.77;;;5.70;1.00;;;;;;5083777;28;20779;-72
2022/01/21 13:10:23;;;;;;;4.60;2.23;;;5.70;1.00;;;;;;5091846;28;20435;-72
2022/01/21 13:13:13;;;;;;;3.60;1.90;;;5.60;1.00;;;;;;5092911;28;20418;-73
2022/01/21 13:15:48;;;;;;;3.73;2.60;;;5.60;1.00;;;;;;5093072;28;20890;-75
2022/01/21 13:18:23;;;;;;;14.63;3.10;;;5.50;1.00;;;;;;5090745;28;20939;-74
2022/01/21 13:20:55;;;;;;;4.17;2.57;;;5.40;1.00;;;;;;5090792;28;20500;-75
2022/01/21 13:23:50;;;;;;;5.57;2.43;;;5.40;1.00;;;;;;5092470;28;20423;-75
2022/01/21 13:26:22;;;;;;;6.47;3.00;;;5.50;1.00;;;;;;5092122;28;20419;-74
2022/01/21 13:28:59;;;;;;;13.80;2.33;;;5.40;1.00;;;;;;5091806;28;20523;-73
2022/01/21 13:31:26;;;;;;;6.87;2.23;;;5.40;1.00;;;;;;5091535;28;20458;-75
2022/01/21 13:34:04;;;;;;;4.33;2.60;;;5.40;1.00;;;;;;5092626;28;20409;-75
2022/01/21 13:36:52;;;;;;;2.20;2.10;;;5.40;1.00;;;;;;5074687;28;20834;-74
2022/01/21 13:39:22;;;;;;;5.73;2.60;;;5.50;1.00;;;;;;5091367;28;20403;-74
2022/01/21 13:41:54;;;;;;;7.97;3.77;;;5.60;1.00;;;;;;5095422;28;20515;-75
2022/01/21 13:44:45;;;;;;;3.47;2.57;;;5.70;1.00;;;;;;5097039;28;20440;-75
2022/01/21 13:47:41;;;;;;;3.40;1.93;;;5.70;1.00;;;;;;5084567;28;21780;-75
2022/01/21 13:50:17;;;;;;;6.43;2.47;;;5.70;1.00;;;;;;5088911;28;20434;-75
2022/01/21 13:53:19;;;;;;;11.83;2.03;;;5.70;1.00;;;;;;5076988;28;20422;-75
2022/01/21 13:55:47;;;;;;;5.33;2.60;;;5.70;1.00;;;;;;4993675;28;20425;-75
2022/01/21 13:58:25;;;;;;;8.87;3.43;;;5.70;1.00;;;;;;5073528;28;20927;-75
2022/01/21 14:01:13;;;;;;;6.20;2.10;;;5.80;1.00;;;;;;5090688;28;20517;-73
2022/01/21 14:03:41;;;;;;;5.10;2.77;;;5.80;1.00;;;;;;5086777;28;20426;-75
2022/01/21 14:06:09;;;;;;;4.97;1.97;;;5.80;1.00;;;;;;5096076;28;20461;-71
2022/01/21 14:08:46;;;;;;;12.43;2.47;;;5.80;1.00;;;;;;5095204;28;20455;-72